Time;durP1;ratioP1;P1;durP2;ratioP2;P2;SDS_P1;SDS_P2;PMS_P1;PMS_P2;Temp;Humidity;BMP_temperature;BMP_pressure;BME280_temperature;BME280_humidity;BME280_pressure;Samples;Min_cycle;Max_cycle;Signal;HPM_P1;HPM_P2
2023/10/11 00:01:46;;;;;;;8.45;3.90;;;;;;;;;;5135374;27;20308;-74
2023/10/11 00:04:23;;;;;;;8.90;3.80;;;;;;;;;;5139146;27;20080;-74
2023/10/11 00:06:49;;;;;;;8.65;3.40;;;;;;;;;;5135226;27;20015;-73
2023/10/11 00:09:16;;;;;;;16.02;5.00;;;;;;;;;;5144875;27;20525;-73
2023/10/11 00:11:41;;;;;;;9.27;3.80;;;;;;;;;;5127830;27;20019;-73
2023/10/11 00:14:07;;;;;;;10.02;3.38;;;;;;;;;;5142970;27;20105;-73
2023/10/11 00:16:35;;;;;;;10.23;3.50;;;;;;;;;;5141210;27;20022;-74
2023/10/11 00:19:00;;;;;;;15.55;3.88;;;;;;;;;;5143823;27;20041;-73
2023/10/11 00:21:40;;;;;;;8.68;4.00;;;;;;;;;;5133154;27;20486;-73
2023/10/11 00:24:07;;;;;;;12.13;3.30;;;;;;;;;;5124459;27;20491;-74
2023/10/11 00:26:34;;;;;;;16.15;3.70;;;;;;;;;;5127718;27;20027;-73
2023/10/11 00:29:00;;;;;;;17.45;4.00;;;;;;;;;;5131774;27;20047;-74
2023/10/11 00:31:25;;;;;;;14.88;6.00;;;;;;;;;;5123187;27;21472;-73
2023/10/11 00:33:53;;;;;;;8.60;3.92;;;;;;;;;;5130577;27;20083;-74
2023/10/11 00:36:24;;;;;;;15.48;3.95;;;;;;;;;;5138959;27;20023;-73
2023/10/11 00:38:51;;;;;;;9.90;4.00;;;;;;;;;;5132203;27;20102;-74
2023/10/11 00:41:20;;;;;;;9.60;3.65;;;;;;;;;;5117809;27;20092;-74
2023/10/11 00:43:55;;;;;;;7.68;3.72;;;;;;;;;;5127191;27;20019;-74
2023/10/11 00:46:22;;;;;;;12.68;3.47;;;;;;;;;;5137441;27;20048;-73
2023/10/11 00:51:49;;;;;;;10.23;3.72;;;;;;;;;;5096157;27;20061;-74
2023/10/11 00:54:15;;;;;;;7.35;3.85;;;;;;;;;;5131997;27;20027;-73
2023/10/11 00:56:43;;;;;;;7.72;3.33;;;;;;;;;;5136258;27;20110;-73
2023/10/11 00:59:10;;;;;;;11.68;3.72;;;;;;;;;;5126449;27;20507;-73
2023/10/11 01:01:36;;;;;;;10.00;3.83;;;;;;;;;;5131140;27;20023;-73
2023/10/11 01:04:02;;;;;;;11.40;4.28;;;;;;;;;;5130892;27;20027;-73
2023/10/11 01:06:28;;;;;;;11.48;4.32;;;;;;;;;;5128410;27;20545;-73
2023/10/11 01:08:54;;;;;;;8.70;3.72;;;;;;;;;;5127948;27;20037;-73
2023/10/11 01:11:19;;;;;;;11.85;3.75;;;;;;;;;;5125048;27;20027;-74
2023/10/11 01:13:50;;;;;;;11.95;4.35;;;;;;;;;;5138924;27;20019;-73
2023/10/11 01:16:16;;;;;;;12.52;4.10;;;;;;;;;;5140420;27;20076;-74
2023/10/11 01:18:42;;;;;;;9.60;3.90;;;;;;;;;;5135298;27;20015;-74
2023/10/11 01:21:08;;;;;;;11.45;4.28;;;;;;;;;;5128871;27;20102;-74
2023/10/11 01:23:34;;;;;;;12.75;3.95;;;;;;;;;;5131479;27;20106;-74
2023/10/11 01:26:05;;;;;;;16.77;4.35;;;;;;;;;;5129267;27;20106;-73
2023/10/11 01:28:31;;;;;;;13.98;3.40;;;;;;;;;;5134832;27;20065;-73
2023/10/11 01:30:56;;;;;;;7.30;3.53;;;;;;;;;;5141130;27;20034;-73
2023/10/11 01:33:21;;;;;;;9.33;3.53;;;;;;;;;;5131646;27;20050;-73
2023/10/11 01:35:48;;;;;;;9.50;3.50;;;;;;;;;;5132416;27;20241;-74
2023/10/11 01:38:17;;;;;;;10.07;4.00;;;;;;;;;;5141887;27;20394;-73
2023/10/11 01:40:43;;;;;;;9.23;3.40;;;;;;;;;;5130931;27;20007;-74
2023/10/11 01:43:08;;;;;;;14.18;3.90;;;;;;;;;;5130547;27;20023;-73
2023/10/11 01:45:34;;;;;;;9.05;3.63;;;;;;;;;;5140011;27;20072;-73
2023/10/11 01:48:00;;;;;;;12.55;4.20;;;;;;;;;;5129529;27;20019;-73
2023/10/11 01:50:28;;;;;;;14.68;3.80;;;;;;;;;;5130105;27;20022;-73
2023/10/11 01:52:53;;;;;;;13.60;3.85;;;;;;;;;;5127951;27;20008;-73
2023/10/11 01:55:18;;;;;;;9.07;3.73;;;;;;;;;;5124568;27;20027;-73
2023/10/11 01:57:48;;;;;;;7.43;3.58;;;;;;;;;;5136623;27;20278;-73
2023/10/11 02:00:14;;;;;;;20.85;3.65;;;;;;;;;;5138469;27;20054;-73
2023/10/11 02:02:47;;;;;;;12.18;3.95;;;;;;;;;;5125797;27;20058;-73
2023/10/11 02:05:13;;;;;;;15.20;3.85;;;;;;;;;;5131674;27;20046;-74
2023/10/11 02:07:39;;;;;;;12.57;4.05;;;;;;;;;;5127413;27;20549;-73
2023/10/11 02:10:05;;;;;;;16.20;4.05;;;;;;;;;;5132111;27;20019;-74
2023/10/11 02:12:30;;;;;;;9.00;3.63;;;;;;;;;;5137965;27;20019;-73
2023/10/11 02:14:55;;;;;;;7.93;3.63;;;;;;;;;;5136353;27;20422;-73
2023/10/11 02:17:23;;;;;;;7.87;4.10;;;;;;;;;;5131110;27;20064;-73
2023/10/11 02:19:49;;;;;;;15.07;3.95;;;;;;;;;;5129740;27;20276;-73
2023/10/11 02:22:18;;;;;;;15.63;4.93;;;;;;;;;;5139828;27;20034;-73
2023/10/11 02:24:44;;;;;;;12.70;3.92;;;;;;;;;;5137725;27;20542;-74
2023/10/11 02:27:17;;;;;;;7.88;3.88;;;;;;;;;;5132556;27;20248;-74
2023/10/11 02:29:42;;;;;;;17.17;4.10;;;;;;;;;;5130796;27;20037;-73
2023/10/11 02:32:08;;;;;;;17.92;4.38;;;;;;;;;;5127180;27;20014;-73
2023/10/11 02:34:35;;;;;;;9.93;3.63;;;;;;;;;;5139595;27;20014;-73
2023/10/11 02:37:10;;;;;;;15.15;4.40;;;;;;;;;;5129156;27;20028;-73
2023/10/11 02:39:42;;;;;;;13.43;3.95;;;;;;;;;;5129919;27;20023;-74
2023/10/11 02:42:07;;;;;;;11.20;4.18;;;;;;;;;;5120448;27;20031;-73
2023/10/11 02:44:32;;;;;;;6.80;3.20;;;;;;;;;;5129872;27;20011;-73
2023/10/11 02:46:58;;;;;;;10.23;4.47;;;;;;;;;;5130579;27;20321;-73
2023/10/11 02:49:24;;;;;;;7.93;4.00;;;;;;;;;;5141407;27;20012;-73
2023/10/11 02:51:56;;;;;;;10.65;3.67;;;;;;;;;;5130545;27;20458;-73
2023/10/11 02:54:24;;;;;;;10.85;4.20;;;;;;;;;;5131982;27;20377;-73
2023/10/11 02:56:52;;;;;;;19.35;4.72;;;;;;;;;;5136896;27;20104;-73
2023/10/11 02:59:24;;;;;;;8.93;4.22;;;;;;;;;;5136770;27;20023;-73
2023/10/11 03:02:00;;;;;;;12.02;5.25;;;;;;;;;;5134381;27;20011;-73
2023/10/11 03:04:28;;;;;;;16.77;4.43;;;;;;;;;;5145976;27;20477;-74
2023/10/11 03:06:53;;;;;;;12.00;3.80;;;;;;;;;;5139677;27;20019;-73
2023/10/11 03:09:19;;;;;;;9.85;4.47;;;;;;;;;;5134637;27;20026;-74
2023/10/11 03:11:45;;;;;;;10.40;4.45;;;;;;;;;;5125920;27;20016;-73
2023/10/11 03:14:12;;;;;;;9.52;4.78;;;;;;;;;;5131658;27;20118;-73
2023/10/11 03:16:42;;;;;;;9.70;3.97;;;;;;;;;;5137045;27;20075;-74
2023/10/11 03:19:10;;;;;;;9.27;4.22;;;;;;;;;;5139333;27;20038;-73
2023/10/11 03:21:35;;;;;;;16.10;5.03;;;;;;;;;;5139260;27;20473;-73
2023/10/11 03:24:03;;;;;;;11.65;4.20;;;;;;;;;;5124903;27;20039;-73
2023/10/11 03:28:57;;;;;;;8.23;2.80;;;;;;;;;;5142918;27;20541;-73
2023/10/11 03:31:23;;;;;;;16.88;4.40;;;;;;;;;;5132812;27;20265;-74
2023/10/11 03:33:48;;;;;;;14.98;5.80;;;;;;;;;;5133335;27;20500;-73
2023/10/11 03:36:21;;;;;;;12.37;3.83;;;;;;;;;;5138931;27;20079;-73
2023/10/11 03:38:51;;;;;;;14.25;3.47;;;;;;;;;;5132395;27;20269;-73
2023/10/11 03:41:17;;;;;;;21.23;5.13;;;;;;;;;;5131195;27;20403;-73
2023/10/11 03:43:44;;;;;;;12.93;4.53;;;;;;;;;;5135136;27;20023;-73
2023/10/11 03:46:15;;;;;;;12.85;4.55;;;;;;;;;;5137341;27;20358;-73
2023/10/11 03:48:51;;;;;;;17.17;4.88;;;;;;;;;;5135210;27;20029;-73
2023/10/11 03:51:19;;;;;;;16.75;5.07;;;;;;;;;;5131537;27;20428;-73
2023/10/11 03:53:47;;;;;;;12.35;3.78;;;;;;;;;;5128169;27;20046;-73
2023/10/11 03:56:12;;;;;;;12.25;4.40;;;;;;;;;;5139710;27;20102;-73
2023/10/11 03:58:38;;;;;;;12.43;4.10;;;;;;;;;;5130523;27;20386;-73
2023/10/11 04:01:16;;;;;;;16.60;4.30;;;;;;;;;;5131689;27;20269;-73
2023/10/11 04:03:42;;;;;;;13.43;3.90;;;;;;;;;;5132125;27;20281;-73
2023/10/11 04:06:13;;;;;;;20.30;5.15;;;;;;;;;;5129979;27;20026;-73
2023/10/11 04:08:41;;;;;;;25.73;4.10;;;;;;;;;;5132846;27;20071;-73
2023/10/11 04:11:14;;;;;;;23.02;5.80;;;;;;;;;;5136189;27;20015;-73
2023/10/11 04:13:41;;;;;;;9.52;3.33;;;;;;;;;;5137733;27;20110;-73
2023/10/11 04:16:07;;;;;;;16.33;4.38;;;;;;;;;;5124215;27;20026;-73
2023/10/11 04:18:36;;;;;;;18.25;4.78;;;;;;;;;;5137257;27;20118;-73
2023/10/11 04:23:36;;;;;;;11.77;4.78;;;;;;;;;;5135872;27;20027;-73
2023/10/11 04:26:16;;;;;;;14.00;5.45;;;;;;;;;;5134197;27;20028;-73
2023/10/11 04:28:42;;;;;;;12.38;4.00;;;;;;;;;;5125541;27;20023;-73
2023/10/11 04:33:51;;;;;;;16.60;4.10;;;;;;;;;;5134006;27;20397;-73
2023/10/11 04:36:20;;;;;;;19.27;5.00;;;;;;;;;;5130456;27;20027;-73
2023/10/11 04:38:47;;;;;;;13.55;4.82;;;;;;;;;;5131723;27;20280;-73
2023/10/11 04:41:16;;;;;;;12.60;4.15;;;;;;;;;;5132601;27;20030;-73
2023/10/11 04:43:50;;;;;;;12.82;4.45;;;;;;;;;;5121086;27;20034;-73
2023/10/11 04:46:15;;;;;;;15.50;3.92;;;;;;;;;;5133164;27;20094;-73
2023/10/11 04:48:41;;;;;;;18.42;4.75;;;;;;;;;;5135234;27;20155;-73
2023/10/11 04:59:06;;;;;;;11.80;4.05;;;;;;;;;;5129455;27;20364;-73
2023/10/11 05:04:14;;;;;;;10.98;4.68;;;;;;;;;;5131286;27;20052;-73
2023/10/11 05:06:41;;;;;;;17.40;4.40;;;;;;;;;;5129236;27;20030;-73
2023/10/11 05:09:13;;;;;;;7.47;3.53;;;;;;;;;;5131634;27;20385;-73
2023/10/11 05:11:43;;;;;;;13.70;4.65;;;;;;;;;;5129808;27;20524;-73
2023/10/11 05:16:59;;;;;;;13.77;4.60;;;;;;;;;;5129073;27;20097;-73
2023/10/11 05:19:28;;;;;;;13.43;4.47;;;;;;;;;;5128697;27;20117;-73
2023/10/11 05:21:53;;;;;;;12.07;4.25;;;;;;;;;;5131536;27;20861;-73
2023/10/11 05:24:33;;;;;;;12.23;4.75;;;;;;;;;;5130566;27;20696;-73
2023/10/11 05:32:32;;;;;;;11.90;4.68;;;;;;;;;;5125794;27;20083;-73
2023/10/11 05:35:19;;;;;;;13.65;5.07;;;;;;;;;;5124886;27;20058;-73
2023/10/11 05:51:27;;;;;;;18.88;4.65;;;;;;;;;;5132902;27;20033;-73
2023/10/11 05:53:53;;;;;;;23.05;5.90;;;;;;;;;;5133241;27;20377;-73
2023/10/11 05:56:21;;;;;;;19.75;4.88;;;;;;;;;;5135537;27;20023;-73
2023/10/11 05:58:53;;;;;;;12.25;4.85;;;;;;;;;;5127255;27;20015;-73
2023/10/11 06:01:21;;;;;;;13.90;4.65;;;;;;;;;;5124421;27;20085;-73
2023/10/11 06:03:48;;;;;;;12.48;4.57;;;;;;;;;;5131534;27;20076;-73
2023/10/11 06:06:38;;;;;;;12.95;4.40;;;;;;;;;;5134522;27;20026;-73
2023/10/11 06:09:05;;;;;;;15.05;4.05;;;;;;;;;;5132263;27;20102;-73
2023/10/11 06:11:36;;;;;;;15.77;5.05;;;;;;;;;;5133097;27;20023;-74
2023/10/11 06:14:05;;;;;;;19.13;4.97;;;;;;;;;;5128965;27;20067;-73
2023/10/11 06:16:37;;;;;;;16.73;4.75;;;;;;;;;;5132448;27;20107;-73
2023/10/11 06:19:16;;;;;;;16.20;4.75;;;;;;;;;;5128077;27;20042;-73
2023/10/11 06:21:56;;;;;;;20.10;4.50;;;;;;;;;;5129200;27;20030;-73
2023/10/11 06:24:22;;;;;;;9.93;3.45;;;;;;;;;;5130107;27;20019;-75
2023/10/11 06:29:15;;;;;;;13.77;4.97;;;;;;;;;;5125547;27;20395;-73
2023/10/11 06:31:43;;;;;;;28.45;5.95;;;;;;;;;;5130997;27;20256;-73
2023/10/11 06:34:23;;;;;;;15.73;4.30;;;;;;;;;;5126078;27;20024;-73
2023/10/11 06:36:49;;;;;;;17.70;4.95;;;;;;;;;;5113268;27;20090;-73
2023/10/11 06:42:31;;;;;;;8.23;2.13;;;;;;;;;;5104943;27;20064;-73
2023/10/11 06:44:57;;;;;;;16.08;3.42;;;;;;;;;;5120422;27;20035;-73
2023/10/11 06:47:23;;;;;;;11.70;4.43;;;;;;;;;;5129788;27;20019;-73
2023/10/11 06:49:55;;;;;;;19.52;4.70;;;;;;;;;;5127164;27;20026;-73
2023/10/11 06:52:30;;;;;;;10.98;3.22;;;;;;;;;;5120924;28;20019;-73
2023/10/11 06:55:13;;;;;;;11.55;3.85;;;;;;;;;;5126065;27;20390;-73
2023/10/11 06:57:39;;;;;;;13.55;3.60;;;;;;;;;;5120451;27;20041;-73
2023/10/11 07:00:36;;;;;;;8.35;3.40;;;;;;;;;;5119011;27;20030;-73
2023/10/11 07:05:46;;;;;;;12.75;3.97;;;;;;;;;;5122149;27;20497;-73
2023/10/11 07:08:18;;;;;;;11.88;3.65;;;;;;;;;;5119273;27;20023;-73
2023/10/11 07:11:00;;;;;;;11.35;3.28;;;;;;;;;;5122637;28;20015;-73
2023/10/11 07:13:29;;;;;;;19.02;3.60;;;;;;;;;;5119362;27;20505;-74
2023/10/11 07:15:57;;;;;;;19.10;4.60;;;;;;;;;;5118326;27;20020;-73
2023/10/11 07:18:25;;;;;;;13.38;4.10;;;;;;;;;;5123108;27;20031;-73
2023/10/11 07:21:10;;;;;;;7.15;2.60;;;;;;;;;;5120011;27;20024;-73
2023/10/11 07:23:45;;;;;;;10.35;2.97;;;;;;;;;;5116902;27;20271;-73
2023/10/11 07:26:23;;;;;;;8.50;3.28;;;;;;;;;;5118902;27;20018;-74
2023/10/11 07:28:50;;;;;;;12.35;4.13;;;;;;;;;;5122541;27;20489;-74
2023/10/11 07:31:17;;;;;;;16.85;4.78;;;;;;;;;;5125995;27;20075;-74
2023/10/11 07:33:42;;;;;;;8.85;3.92;;;;;;;;;;5124539;27;20052;-74
2023/10/11 07:36:11;;;;;;;14.10;3.88;;;;;;;;;;5124664;27;20027;-74
2023/10/11 08:18:04;;;;;;;9.55;4.22;;;;;;;;;;5005373;28;1194805;-73
2023/10/11 08:20:29;;;;;;;12.70;3.65;;;;;;;;;;5055785;28;20033;-73
2023/10/11 08:22:56;;;;;;;11.93;4.18;;;;;;;;;;5052618;28;20162;-72
2023/10/11 08:25:26;;;;;;;12.73;4.32;;;;;;;;;;5044375;28;20029;-72
2023/10/11 08:28:04;;;;;;;;;;;;;;;;;;5060201;28;20392;-73
2023/10/11 08:30:31;;;;;;;7.47;2.38;;;;;;;;;;5059456;28;19916;-73
2023/10/11 08:32:56;;;;;;;28.42;7.43;;;;;;;;;;5061133;28;20174;-73
2023/10/11 08:35:31;;;;;;;24.42;6.00;;;;;;;;;;5060342;28;20104;-73
2023/10/11 08:38:02;;;;;;;18.17;4.30;;;;;;;;;;5056580;28;20439;-73
2023/10/11 08:40:34;;;;;;;12.57;3.60;;;;;;;;;;5062903;28;20504;-73
2023/10/11 08:43:01;;;;;;;13.23;4.22;;;;;;;;;;5058529;28;20031;-73
2023/10/11 08:45:33;;;;;;;8.20;2.50;;;;;;;;;;5061348;28;20032;-73
2023/10/11 08:48:05;;;;;;;16.45;4.35;;;;;;;;;;5061719;28;20587;-73
2023/10/11 08:50:34;;;;;;;9.52;3.45;;;;;;;;;;5064453;28;20469;-73
2023/10/11 08:53:01;;;;;;;13.77;4.68;;;;;;;;;;5061060;28;20404;-73
2023/10/11 08:55:26;;;;;;;11.85;3.88;;;;;;;;;;5059909;28;20037;-73
2023/10/11 08:57:53;;;;;;;9.77;4.03;;;;;;;;;;5056312;28;21204;-73
2023/10/11 09:00:29;;;;;;;11.23;3.75;;;;;;;;;;5065065;28;20279;-72
2023/10/11 09:02:54;;;;;;;13.20;3.78;;;;;;;;;;5056966;28;20025;-73
2023/10/11 09:05:29;;;;;;;11.75;4.40;;;;;;;;;;5058979;28;20018;-73
2023/10/11 09:07:54;;;;;;;7.90;2.78;;;;;;;;;;5056082;28;20028;-72
2023/10/11 09:10:27;;;;;;;10.98;3.92;;;;;;;;;;5060586;28;20017;-73
2023/10/11 09:12:59;;;;;;;13.65;4.63;;;;;;;;;;5058474;28;20103;-73
2023/10/11 09:15:33;;;;;;;11.38;4.00;;;;;;;;;;5049290;28;20056;-73
2023/10/11 09:18:14;;;;;;;7.22;2.75;;;;;;;;;;5041243;28;20022;-73
2023/10/11 09:20:42;;;;;;;9.38;3.75;;;;;;;;;;5028300;28;20197;-72
2023/10/11 09:23:11;;;;;;;13.60;3.15;;;;;;;;;;5029145;28;20025;-72
2023/10/11 09:26:01;;;;;;;8.23;2.70;;;;;;;;;;5026653;28;20025;-73
2023/10/11 09:28:27;;;;;;;13.63;3.92;;;;;;;;;;5024957;28;20018;-73
2023/10/11 09:31:27;;;;;;;12.15;4.75;;;;;;;;;;5029118;28;20017;-74
2023/10/11 09:33:53;;;;;;;;;;;;;;;;;;5022086;28;20053;-72
2023/10/11 09:36:20;;;;;;;10.77;4.55;;;;;;;;;;5022097;28;19913;-73
2023/10/11 09:38:54;;;;;;;13.75;4.75;;;;;;;;;;5026231;28;20078;-72
2023/10/11 09:41:21;;;;;;;15.40;3.60;;;;;;;;;;5026024;28;20053;-72
2023/10/11 09:43:47;;;;;;;13.95;4.30;;;;;;;;;;5030659;28;20508;-73
2023/10/11 09:46:13;;;;;;;8.75;4.05;;;;;;;;;;5024907;28;20017;-72
2023/10/11 09:48:42;;;;;;;17.08;4.50;;;;;;;;;;5028167;28;20017;-72
2023/10/11 09:51:08;;;;;;;14.85;3.88;;;;;;;;;;5027184;28;20013;-72
2023/10/11 09:53:37;;;;;;;8.45;3.38;;;;;;;;;;5025428;28;20108;-73
2023/10/11 09:56:15;;;;;;;17.50;3.63;;;;;;;;;;5021512;28;20057;-73
2023/10/11 09:58:58;;;;;;;16.02;4.18;;;;;;;;;;5024205;28;20028;-73
2023/10/11 10:01:32;;;;;;;12.75;4.20;;;;;;;;;;5023934;28;20081;-73
2023/10/11 10:04:04;;;;;;;11.98;4.28;;;;;;;;;;5024074;28;20483;-72
2023/10/11 10:06:29;;;;;;;14.80;4.53;;;;;;;;;;5029850;28;20017;-72
2023/10/11 10:12:09;;;;;;;12.13;4.18;;;;;;;;;;5025943;28;20128;-73
2023/10/11 10:14:38;;;;;;;11.85;4.35;;;;;;;;;;5025076;28;20175;-73
2023/10/11 10:17:10;;;;;;;14.50;4.23;;;;;;;;;;5025210;28;20515;-73
2023/10/11 10:19:39;;;;;;;21.33;4.13;;;;;;;;;;5029684;28;20018;-73
2023/10/11 10:22:27;;;;;;;14.73;4.00;;;;;;;;;;5028924;28;20028;-73
2023/10/11 10:24:56;;;;;;;13.73;3.92;;;;;;;;;;5028102;28;20022;-73
2023/10/11 10:27:33;;;;;;;14.35;4.13;;;;;;;;;;5021187;28;20076;-74
2023/10/11 10:29:59;;;;;;;13.13;4.03;;;;;;;;;;5027994;28;20041;-72
2023/10/11 10:32:25;;;;;;;9.07;3.70;;;;;;;;;;5027554;28;20488;-73
2023/10/11 10:35:11;;;;;;;14.50;3.85;;;;;;;;;;5025975;28;20029;-73
2023/10/11 10:37:45;;;;;;;16.35;3.88;;;;;;;;;;5024199;28;20022;-73
2023/10/11 10:40:15;;;;;;;13.98;3.55;;;;;;;;;;5024415;28;20381;-73
2023/10/11 10:42:44;;;;;;;;;;;;;;;;;;5025593;28;20381;-73
2023/10/11 10:45:12;;;;;;;14.70;2.83;;;;;;;;;;5020433;28;19912;-73
2023/10/11 10:47:37;;;;;;;13.10;3.85;;;;;;;;;;5021226;28;20141;-73
2023/10/11 10:50:09;;;;;;;11.00;3.73;;;;;;;;;;5023288;28;20044;-73
2023/10/11 10:52:34;;;;;;;9.45;3.17;;;;;;;;;;5028408;28;20075;-73
2023/10/11 10:55:05;;;;;;;10.43;3.63;;;;;;;;;;5026413;28;20607;-73
2023/10/11 10:57:36;;;;;;;8.05;2.90;;;;;;;;;;5019553;28;20075;-73
2023/10/11 11:00:05;;;;;;;11.82;3.97;;;;;;;;;;5017731;28;20488;-73
2023/10/11 11:02:34;;;;;;;12.27;3.80;;;;;;;;;;5019945;28;20524;-74
2023/10/11 11:04:59;;;;;;;18.35;3.80;;;;;;;;;;5025483;28;20535;-73
2023/10/11 11:07:26;;;;;;;13.15;3.88;;;;;;;;;;5026911;28;20018;-73
2023/10/11 11:09:57;;;;;;;9.27;3.47;;;;;;;;;;5023163;28;20162;-73
2023/10/11 11:12:29;;;;;;;11.10;3.47;;;;;;;;;;5027236;28;20024;-73
2023/10/11 11:14:55;;;;;;;13.55;3.65;;;;;;;;;;5025025;28;20032;-73
2023/10/11 11:17:23;;;;;;;10.02;3.78;;;;;;;;;;5020995;28;20021;-73
2023/10/11 11:20:27;;;;;;;13.20;4.10;;;;;;;;;;5044678;28;20017;-73
2023/10/11 11:22:53;;;;;;;9.48;3.45;;;;;;;;;;5041597;28;20260;-73
2023/10/11 11:28:04;;;;;;;7.53;3.38;;;;;;;;;;5046201;28;20027;-73
2023/10/11 11:30:33;;;;;;;14.70;4.22;;;;;;;;;;5046960;28;20474;-73
2023/10/11 11:32:59;;;;;;;16.55;3.33;;;;;;;;;;5043046;28;20021;-73
2023/10/11 11:35:32;;;;;;;7.55;3.63;;;;;;;;;;5044151;28;20056;-74
2023/10/11 11:38:02;;;;;;;12.27;3.40;;;;;;;;;;5045431;28;20025;-73
2023/10/11 11:40:27;;;;;;;15.15;3.72;;;;;;;;;;5038333;28;20421;-74
2023/10/11 11:42:53;;;;;;;9.73;3.58;;;;;;;;;;5041769;28;20031;-73
2023/10/11 11:45:19;;;;;;;11.02;3.67;;;;;;;;;;5036007;28;21012;-73
2023/10/11 11:47:57;;;;;;;22.77;3.88;;;;;;;;;;5038826;28;20035;-74
2023/10/11 11:50:25;;;;;;;15.27;3.95;;;;;;;;;;5035563;28;20025;-73
2023/10/11 11:52:51;;;;;;;10.45;4.15;;;;;;;;;;5037078;28;20556;-73
2023/10/11 11:55:22;;;;;;;16.45;3.58;;;;;;;;;;5038289;28;20115;-73
2023/10/11 11:57:48;;;;;;;16.15;4.18;;;;;;;;;;5037818;28;20461;-73
2023/10/11 12:03:05;;;;;;;16.58;4.45;;;;;;;;;;5016092;28;20047;-73
2023/10/11 12:05:31;;;;;;;16.80;3.88;;;;;;;;;;5043362;28;20323;-73
2023/10/11 12:07:57;;;;;;;28.90;4.00;;;;;;;;;;5040402;28;20918;-73
2023/10/11 12:10:23;;;;;;;23.35;3.85;;;;;;;;;;5040906;28;20025;-73
2023/10/11 12:13:01;;;;;;;16.33;3.53;;;;;;;;;;5041268;28;20442;-73
2023/10/11 12:15:28;;;;;;;24.15;4.82;;;;;;;;;;5037108;28;20051;-73
2023/10/11 12:17:53;;;;;;;14.13;3.97;;;;;;;;;;5041023;28;20044;-73
2023/10/11 12:20:19;;;;;;;18.10;4.67;;;;;;;;;;5038613;28;20481;-73
2023/10/11 12:22:44;;;;;;;26.73;4.53;;;;;;;;;;5040317;28;20279;-73
2023/10/11 12:25:10;;;;;;;18.58;4.15;;;;;;;;;;5039968;28;20701;-73
2023/10/11 12:27:41;;;;;;;17.60;4.18;;;;;;;;;;5038668;28;20384;-73
2023/10/11 12:30:19;;;;;;;15.32;3.72;;;;;;;;;;5042483;28;20904;-73
2023/10/11 12:32:45;;;;;;;15.82;4.68;;;;;;;;;;5036985;28;20467;-73
2023/10/11 12:35:10;;;;;;;13.57;4.00;;;;;;;;;;5040730;28;20873;-73
2023/10/11 12:37:35;;;;;;;24.35;5.05;;;;;;;;;;5045150;28;20049;-73
2023/10/11 12:40:00;;;;;;;18.37;4.23;;;;;;;;;;5040759;28;20021;-73
2023/10/11 12:42:26;;;;;;;13.10;4.28;;;;;;;;;;5038326;28;20466;-73
2023/10/11 12:44:51;;;;;;;29.67;4.43;;;;;;;;;;5041007;28;20017;-73
2023/10/11 12:47:19;;;;;;;22.10;4.82;;;;;;;;;;5043873;28;20036;-73
2023/10/11 12:49:44;;;;;;;23.48;4.07;;;;;;;;;;5042293;28;20040;-73
2023/10/11 12:52:15;;;;;;;13.70;3.83;;;;;;;;;;5043827;28;20665;-73
2023/10/11 12:54:41;;;;;;;26.45;4.50;;;;;;;;;;5033924;28;20321;-73
2023/10/11 12:57:06;;;;;;;21.65;5.65;;;;;;;;;;5046871;28;20600;-73
2023/10/11 12:59:32;;;;;;;21.27;4.57;;;;;;;;;;5050797;28;20017;-73
2023/10/11 13:01:58;;;;;;;18.50;3.90;;;;;;;;;;5047196;28;20028;-73
2023/10/11 13:04:24;;;;;;;17.20;4.85;;;;;;;;;;5047676;28;20025;-73
2023/10/11 13:06:52;;;;;;;16.55;4.50;;;;;;;;;;5044715;28;20028;-72
2023/10/11 13:09:22;;;;;;;9.52;3.58;;;;;;;;;;5047950;28;20497;-73
2023/10/11 13:11:48;;;;;;;15.77;4.50;;;;;;;;;;5035663;28;20042;-73
2023/10/11 13:14:18;;;;;;;24.20;4.77;;;;;;;;;;5046667;28;20410;-73
2023/10/11 13:16:51;;;;;;;17.05;3.92;;;;;;;;;;5044988;28;20275;-73
2023/10/11 13:19:20;;;;;;;13.57;4.05;;;;;;;;;;5049670;28;20061;-73
2023/10/11 13:21:46;;;;;;;13.20;3.83;;;;;;;;;;5042179;28;20017;-73
2023/10/11 13:24:12;;;;;;;18.52;4.80;;;;;;;;;;5049156;28;20028;-73
2023/10/11 13:26:42;;;;;;;21.38;4.40;;;;;;;;;;5041358;28;20017;-72
2023/10/11 13:29:07;;;;;;;26.70;3.95;;;;;;;;;;5044320;28;20358;-73
2023/10/11 13:31:33;;;;;;;14.80;4.05;;;;;;;;;;5044751;28;20079;-73
2023/10/11 13:33:58;;;;;;;27.40;4.43;;;;;;;;;;5046161;28;20821;-73
2023/10/11 13:36:26;;;;;;;13.20;3.97;;;;;;;;;;5045877;28;20029;-73
2023/10/11 13:38:51;;;;;;;26.63;6.18;;;;;;;;;;5041953;28;20108;-73
2023/10/11 13:41:27;;;;;;;25.90;5.68;;;;;;;;;;5047499;28;20025;-73
2023/10/11 13:43:52;;;;;;;25.80;4.47;;;;;;;;;;5046828;28;20025;-73
2023/10/11 13:46:17;;;;;;;26.90;5.23;;;;;;;;;;5047292;28;20043;-73
2023/10/11 13:48:46;;;;;;;17.10;4.20;;;;;;;;;;5046465;28;20025;-73
2023/10/11 13:51:17;;;;;;;28.63;4.10;;;;;;;;;;5045813;28;20016;-73
2023/10/11 13:53:42;;;;;;;19.25;3.90;;;;;;;;;;5044047;28;20025;-73
2023/10/11 13:56:11;;;;;;;19.07;5.10;;;;;;;;;;5049548;28;20021;-73
2023/10/11 13:58:36;;;;;;;20.52;4.70;;;;;;;;;;5044181;28;20021;-73
2023/10/11 14:01:03;;;;;;;19.17;4.82;;;;;;;;;;5042871;28;20091;-73
2023/10/11 14:06:20;;;;;;;29.45;4.20;;;;;;;;;;5046950;28;20108;-73
2023/10/11 14:08:44;;;;;;;12.88;3.55;;;;;;;;;;5048107;28;20028;-73
2023/10/11 14:11:14;;;;;;;21.73;3.65;;;;;;;;;;5049222;28;20017;-73
2023/10/11 14:13:39;;;;;;;25.63;5.40;;;;;;;;;;5045558;28;20021;-73
2023/10/11 14:16:05;;;;;;;17.23;4.07;;;;;;;;;;5045676;28;20045;-73
2023/10/11 14:18:37;;;;;;;14.85;4.30;;;;;;;;;;5031159;28;20268;-73
2023/10/11 14:21:09;;;;;;;12.55;4.93;;;;;;;;;;5027796;28;20022;-73
2023/10/11 14:23:36;;;;;;;22.05;3.95;;;;;;;;;;5025774;28;20028;-73
2023/10/11 14:26:04;;;;;;;21.95;4.18;;;;;;;;;;5027576;28;20080;-73
2023/10/11 14:28:29;;;;;;;21.48;4.05;;;;;;;;;;5024393;28;20026;-73
2023/10/11 14:30:54;;;;;;;19.63;3.90;;;;;;;;;;5029497;28;20025;-73
2023/10/11 14:33:20;;;;;;;24.13;4.30;;;;;;;;;;5025522;28;20041;-73
2023/10/11 14:35:46;;;;;;;15.00;3.70;;;;;;;;;;5026601;28;20033;-73
2023/10/11 14:38:14;;;;;;;15.75;4.45;;;;;;;;;;5012426;28;20303;-73
2023/10/11 14:40:42;;;;;;;18.70;3.92;;;;;;;;;;5027181;28;20104;-73
2023/10/11 14:43:11;;;;;;;20.52;5.22;;;;;;;;;;5028360;28;20021;-73
2023/10/11 14:45:37;;;;;;;15.20;3.05;;;;;;;;;;5022886;28;20389;-73
2023/10/11 14:48:07;;;;;;;24.55;3.60;;;;;;;;;;5028343;28;20013;-73
2023/10/11 14:50:33;;;;;;;12.82;4.03;;;;;;;;;;5023356;28;20013;-73
2023/10/11 14:52:59;;;;;;;20.50;4.20;;;;;;;;;;5025238;28;20031;-73
2023/10/11 14:55:26;;;;;;;14.73;3.78;;;;;;;;;;5011866;28;20026;-73
2023/10/11 14:57:52;;;;;;;13.07;3.55;;;;;;;;;;5028064;28;20048;-73
2023/10/11 15:00:22;;;;;;;13.50;4.68;;;;;;;;;;5025968;28;20037;-73
2023/10/11 15:02:48;;;;;;;12.98;3.22;;;;;;;;;;5026425;28;20033;-73
2023/10/11 15:05:15;;;;;;;25.25;3.67;;;;;;;;;;5022272;28;20033;-73
2023/10/11 15:07:40;;;;;;;22.45;3.92;;;;;;;;;;5026570;28;20013;-73
2023/10/11 15:10:06;;;;;;;18.38;4.22;;;;;;;;;;5024177;28;20493;-73
2023/10/11 15:12:31;;;;;;;19.52;4.32;;;;;;;;;;5026221;28;20030;-73
2023/10/11 15:14:57;;;;;;;18.67;3.27;;;;;;;;;;5023743;28;20021;-73
2023/10/11 15:17:23;;;;;;;16.58;4.15;;;;;;;;;;5026924;28;20024;-73
2023/10/11 15:19:48;;;;;;;20.03;4.47;;;;;;;;;;5022985;28;20026;-73
2023/10/11 15:22:15;;;;;;;16.27;4.22;;;;;;;;;;5023680;28;20433;-73
2023/10/11 15:24:40;;;;;;;16.02;3.60;;;;;;;;;;5024583;28;20022;-73
2023/10/11 15:27:05;;;;;;;17.08;3.78;;;;;;;;;;5022519;28;20075;-73
2023/10/11 15:29:31;;;;;;;8.53;3.83;;;;;;;;;;5025929;28;20259;-73
2023/10/11 15:31:56;;;;;;;16.70;4.65;;;;;;;;;;5024847;28;20453;-73
2023/10/11 15:34:21;;;;;;;25.00;5.43;;;;;;;;;;5018885;28;20021;-73
2023/10/11 15:36:46;;;;;;;20.97;3.97;;;;;;;;;;5025135;28;20076;-73
2023/10/11 15:39:12;;;;;;;24.83;3.77;;;;;;;;;;5021840;28;20037;-73
2023/10/11 15:41:37;;;;;;;20.23;4.10;;;;;;;;;;5023274;28;20289;-73
2023/10/11 15:44:02;;;;;;;23.73;4.05;;;;;;;;;;5027182;28;20319;-73
2023/10/11 15:46:28;;;;;;;21.27;3.38;;;;;;;;;;5025886;28;20038;-73
2023/10/11 15:48:54;;;;;;;16.05;3.70;;;;;;;;;;5020745;28;20022;-73
2023/10/11 15:51:21;;;;;;;19.63;4.05;;;;;;;;;;5025427;28;20024;-73
2023/10/11 15:53:46;;;;;;;20.30;3.65;;;;;;;;;;5021043;28;20096;-73
2023/10/11 15:56:15;;;;;;;23.27;3.53;;;;;;;;;;5023605;28;20101;-73
2023/10/11 15:58:40;;;;;;;14.95;3.85;;;;;;;;;;5026955;28;20275;-73
2023/10/11 16:01:09;;;;;;;21.15;3.78;;;;;;;;;;5026012;28;20025;-73
2023/10/11 16:03:39;;;;;;;19.45;4.32;;;;;;;;;;5017610;28;20025;-73
2023/10/11 16:06:05;;;;;;;19.83;4.40;;;;;;;;;;5026475;28;20037;-73
2023/10/11 16:08:30;;;;;;;18.63;4.30;;;;;;;;;;5021586;28;20106;-73
2023/10/11 16:11:04;;;;;;;11.93;3.95;;;;;;;;;;5023306;28;20018;-73
2023/10/11 16:13:30;;;;;;;14.00;3.55;;;;;;;;;;5022485;28;20441;-73
2023/10/11 16:16:02;;;;;;;26.50;5.05;;;;;;;;;;5026678;28;20020;-73
2023/10/11 16:18:28;;;;;;;17.20;3.33;;;;;;;;;;5023854;28;20029;-73
2023/10/11 16:20:54;;;;;;;17.83;3.85;;;;;;;;;;5020246;28;20766;-73
2023/10/11 16:23:20;;;;;;;23.05;3.83;;;;;;;;;;5027645;28;20533;-73
2023/10/11 16:25:45;;;;;;;22.65;4.22;;;;;;;;;;5030931;28;20021;-73